Martroger III — FGA8276 — position and weather

sailwx.info

Track history (hours):
 
Tides and Currents Weather Stations Pressure Air Temp Water Temp Dewpoint Dewpoint Depression Visibility Wind Speed Wind Dir Waves Ship Positions

Martroger III

Last reported at 2017-Sep-10 06:37 UTC. Time now 2017-Sep-19 17:24 UTC.
Position N 46°32' W 001°56'.
Warning: this ship's position is 9 days out of date.

Length 17 m.

Type: Sailing vessel. MMSI: 227150390.

Date/timePositionNaut miles runAvg speedWind from/ knotsBaromVisibWave heightAir tempDewpointWater temp
2017-Sep-10 06:37N 46°32' W 001°56'1 5.3
2017-Sep-10 06:29N 46°31' W 001°56'3 5.3
2017-Sep-10 05:52N 46°28' W 001°55'1 4.0
2017-Sep-10 05:30N 46°28' W 001°53'2 4.0
2017-Sep-10 05:00N 46°28' W 001°50'2 3.9
2017-Sep-10 04:30N 46°29' W 001°48'1 2.1
2017-Sep-10 03:59N 46°30' W 001°48'0 0.0
2017-Sep-10 03:26N 46°30' W 001°48'0 0.0
2017-Sep-09 17:11N 46°30' W 001°48'0 0.0
2017-Sep-09 16:59N 46°30' W 001°48'1 2.0
2017-Sep-09 16:29N 46°29' W 001°47'1 1.8
2017-Sep-09 16:00N 46°30' W 001°48'0 0.3
2017-Sep-09 15:28N 46°30' W 001°48'0 0.0
2017-Sep-09 14:43N 46°30' W 001°48'0 0.0
2017-Sep-09 14:28N 46°30' W 001°48'0 0.0
2017-Sep-09 13:58N 46°30' W 001°48'0 0.0
2017-Sep-09 13:28N 46°30' W 001°48'0 0.0
2017-Sep-09 12:52N 46°30' W 001°48'0 0.0
2017-Sep-09 12:31N 46°30' W 001°48'0 0.0
2017-Sep-09 12:01N 46°30' W 001°48'0 0.0
2017-Sep-09 11:25N 46°30' W 001°48'0 0.0
2017-Sep-09 10:58N 46°30' W 001°48'0 0.0
2017-Sep-09 10:25N 46°30' W 001°48'0 0.0
2017-Sep-09 09:52N 46°30' W 001°48'0 0.0
2017-Sep-09 09:29N 46°30' W 001°48'0 0.0
2017-Sep-09 08:56N 46°30' W 001°48'0 0.0
2017-Sep-09 08:21N 46°30' W 001°48'0 0.0
2017-Sep-09 08:00N 46°30' W 001°48'0 0.0
2017-Sep-08 19:15N 46°30' W 001°48'0 0.0
2017-Sep-08 18:57N 46°30' W 001°48'0 0.0
2017-Sep-08 18:22N 46°30' W 001°48'0 0.0
2017-Sep-08 17:55N 46°30' W 001°48'0 0.0
2017-Sep-08 17:28N 46°30' W 001°48'0 0.0
2017-Sep-08 16:49N 46°30' W 001°48'0 0.0
2017-Sep-08 16:10N 46°30' W 001°48'0 0.0
2017-Sep-08 15:55N 46°30' W 001°48'0 0.0
2017-Sep-08 15:16N 46°30' W 001°48'0 0.0
2017-Sep-08 14:55N 46°30' W 001°48'0 0.0
2017-Sep-08 14:28N 46°30' W 001°48'0 0.0
2017-Sep-08 13:58N 46°30' W 001°48'0 0.0
2017-Sep-08 13:28N 46°30' W 001°48'0 0.0
2017-Sep-08 12:52N 46°30' W 001°48'0 0.0
2017-Sep-08 12:16N 46°30' W 001°48'0 0.0
2017-Sep-08 11:58N 46°30' W 001°48'0 0.0
2017-Sep-08 11:25N 46°30' W 001°48'0 0.0
2017-Sep-08 10:57N 46°30' W 001°48'0 0.0
2017-Sep-08 10:28N 46°30' W 001°48'0 0.0
2017-Sep-08 09:58N 46°30' W 001°48'0 0.0
2017-Sep-08 09:28N 46°30' W 001°48'0 0.0
2017-Sep-08 08:28N 46°30' W 001°48'0 0.0
2017-Sep-08 07:58N 46°30' W 001°48'0 0.0
2017-Sep-07 20:44N 46°30' W 001°48'0 0.0
2017-Sep-07 20:29N 46°30' W 001°48'0 0.0
2017-Sep-07 19:59N 46°30' W 001°48'0 0.0
2017-Sep-07 19:29N 46°30' W 001°48'0 0.0
2017-Sep-07 18:59N 46°30' W 001°48'0 0.0
2017-Sep-07 18:29N 46°30' W 001°48'0 0.0
2017-Sep-07 17:59N 46°30' W 001°48'0 0.0
2017-Sep-07 17:14N 46°30' W 001°48'0 0.0
2017-Sep-07 16:59N 46°30' W 001°48'0 0.0
2017-Sep-07 16:26N 46°30' W 001°48'0 0.0
2017-Sep-07 15:59N 46°30' W 001°48'0 0.2
2017-Sep-07 15:30N 46°30' W 001°48'2 2.1
2017-Sep-07 14:23N 46°29' W 001°51'3 6.4
2017-Sep-07 13:59N 46°31' W 001°53'3 6.4
2017-Sep-07 13:30N 46°34' W 001°56'  
Track history (hours):
 
Tides and Currents Weather Stations Pressure Air Temp Water Temp Dewpoint Dewpoint Depression Visibility Wind Speed Wind Dir Waves Ship Positions

Martroger III

Last reported at 2017-Sep-10 06:37 UTC. Time now 2017-Sep-19 17:24 UTC.
Position N 46°32' W 001°56'.
Warning: this ship's position is 9 days out of date.

Length 17 m.

Type: Sailing vessel. MMSI: 227150390.

Date/timePositionNaut miles runAvg speedWind from/ knotsBaromVisibWave heightAir tempDewpointWater temp
2017-Sep-10 06:37N 46°32' W 001°56'1 5.3
2017-Sep-10 06:29N 46°31' W 001°56'3 5.3
2017-Sep-10 05:52N 46°28' W 001°55'1 4.0
2017-Sep-10 05:30N 46°28' W 001°53'2 4.0
2017-Sep-10 05:00N 46°28' W 001°50'2 3.9
2017-Sep-10 04:30N 46°29' W 001°48'1 2.1
2017-Sep-10 03:59N 46°30' W 001°48'0 0.0
2017-Sep-10 03:26N 46°30' W 001°48'0 0.0
2017-Sep-09 17:11N 46°30' W 001°48'0 0.0
2017-Sep-09 16:59N 46°30' W 001°48'1 2.0
2017-Sep-09 16:29N 46°29' W 001°47'1 1.8
2017-Sep-09 16:00N 46°30' W 001°48'0 0.3
2017-Sep-09 15:28N 46°30' W 001°48'0 0.0
2017-Sep-09 14:43N 46°30' W 001°48'0 0.0
2017-Sep-09 14:28N 46°30' W 001°48'0 0.0
2017-Sep-09 13:58N 46°30' W 001°48'0 0.0
2017-Sep-09 13:28N 46°30' W 001°48'0 0.0
2017-Sep-09 12:52N 46°30' W 001°48'0 0.0
2017-Sep-09 12:31N 46°30' W 001°48'0 0.0
2017-Sep-09 12:01N 46°30' W 001°48'0 0.0
2017-Sep-09 11:25N 46°30' W 001°48'0 0.0
2017-Sep-09 10:58N 46°30' W 001°48'0 0.0
2017-Sep-09 10:25N 46°30' W 001°48'0 0.0
2017-Sep-09 09:52N 46°30' W 001°48'0 0.0
2017-Sep-09 09:29N 46°30' W 001°48'0 0.0
2017-Sep-09 08:56N 46°30' W 001°48'0 0.0
2017-Sep-09 08:21N 46°30' W 001°48'0 0.0
2017-Sep-09 08:00N 46°30' W 001°48'0 0.0
2017-Sep-08 19:15N 46°30' W 001°48'0 0.0
2017-Sep-08 18:57N 46°30' W 001°48'0 0.0
2017-Sep-08 18:22N 46°30' W 001°48'0 0.0
2017-Sep-08 17:55N 46°30' W 001°48'0 0.0
2017-Sep-08 17:28N 46°30' W 001°48'0 0.0
2017-Sep-08 16:49N 46°30' W 001°48'0 0.0
2017-Sep-08 16:10N 46°30' W 001°48'0 0.0
2017-Sep-08 15:55N 46°30' W 001°48'0 0.0
2017-Sep-08 15:16N 46°30' W 001°48'0 0.0
2017-Sep-08 14:55N 46°30' W 001°48'0 0.0
2017-Sep-08 14:28N 46°30' W 001°48'0 0.0
2017-Sep-08 13:58N 46°30' W 001°48'0 0.0
2017-Sep-08 13:28N 46°30' W 001°48'0 0.0
2017-Sep-08 12:52N 46°30' W 001°48'0 0.0
2017-Sep-08 12:16N 46°30' W 001°48'0 0.0
2017-Sep-08 11:58N 46°30' W 001°48'0 0.0
2017-Sep-08 11:25N 46°30' W 001°48'0 0.0
2017-Sep-08 10:57N 46°30' W 001°48'0 0.0
2017-Sep-08 10:28N 46°30' W 001°48'0 0.0
2017-Sep-08 09:58N 46°30' W 001°48'0 0.0
2017-Sep-08 09:28N 46°30' W 001°48'0 0.0
2017-Sep-08 08:28N 46°30' W 001°48'0 0.0
2017-Sep-08 07:58N 46°30' W 001°48'0 0.0
2017-Sep-07 20:44N 46°30' W 001°48'0 0.0
2017-Sep-07 20:29N 46°30' W 001°48'0 0.0
2017-Sep-07 19:59N 46°30' W 001°48'0 0.0
2017-Sep-07 19:29N 46°30' W 001°48'0 0.0
2017-Sep-07 18:59N 46°30' W 001°48'0 0.0
2017-Sep-07 18:29N 46°30' W 001°48'0 0.0
2017-Sep-07 17:59N 46°30' W 001°48'0 0.0
2017-Sep-07 17:14N 46°30' W 001°48'0 0.0
2017-Sep-07 16:59N 46°30' W 001°48'0 0.0
2017-Sep-07 16:26N 46°30' W 001°48'0 0.0
2017-Sep-07 15:59N 46°30' W 001°48'0 0.2
2017-Sep-07 15:30N 46°30' W 001°48'2 2.1
2017-Sep-07 14:23N 46°29' W 001°51'3 6.4
2017-Sep-07 13:59N 46°31' W 001°53'3 6.4
2017-Sep-07 13:30N 46°34' W 001°56'  

Dump ship's entire track history